createdAt,value
2023-08-11T00:01:09.395Z,100.00
2023-08-11T00:06:12.889Z,100.00
2023-08-11T00:11:17.641Z,100.00
2023-08-11T00:16:20.787Z,100.00
2023-08-11T00:21:24.740Z,100.00
2023-08-11T00:26:31.477Z,100.00
2023-08-11T00:31:34.629Z,100.00
2023-08-11T00:36:38.089Z,100.00
2023-08-11T00:41:42.905Z,100.00
2023-08-11T00:46:47.103Z,100.00
2023-08-11T00:51:50.478Z,100.00
2023-08-11T00:56:55.899Z,100.00
2023-08-11T01:01:59.190Z,100.00
2023-08-11T01:07:10.015Z,100.00
2023-08-11T01:12:23.364Z,100.00
2023-08-11T01:17:28.451Z,100.00
2023-08-11T01:22:36.410Z,100.00
2023-08-11T01:27:47.066Z,100.00
2023-08-11T01:32:51.411Z,100.00
2023-08-11T01:37:54.612Z,100.00
2023-08-11T01:43:02.987Z,100.00
2023-08-11T01:48:07.806Z,100.00
2023-08-11T01:53:12.061Z,100.00
2023-08-11T01:58:17.033Z,100.00
2023-08-11T02:03:20.693Z,100.00
2023-08-11T02:08:23.942Z,100.00
2023-08-11T02:13:30.258Z,100.00
2023-08-11T02:18:33.358Z,100.00
2023-08-11T02:23:36.456Z,100.00
2023-08-11T02:28:41.313Z,100.00
2023-08-11T02:33:45.145Z,100.00
2023-08-11T02:38:48.213Z,100.00
2023-08-11T02:43:53.081Z,100.00
2023-08-11T02:48:56.434Z,100.00
2023-08-11T02:53:59.540Z,100.00
2023-08-11T02:59:04.221Z,100.00
2023-08-11T03:04:07.619Z,100.00
2023-08-11T03:09:11.981Z,100.00
2023-08-11T03:14:16.415Z,100.00
2023-08-11T03:19:19.579Z,100.00
2023-08-11T03:24:23.032Z,100.00
2023-08-11T03:29:27.673Z,100.00
2023-08-11T03:34:30.992Z,100.00
2023-08-11T03:39:34.530Z,100.00
2023-08-11T03:44:39.104Z,100.00
2023-08-11T03:49:42.183Z,100.00
2023-08-11T03:54:46.157Z,100.00
2023-08-11T03:59:51.144Z,100.00
2023-08-11T04:04:54.234Z,100.00
2023-08-11T04:09:57.806Z,100.00
2023-08-11T04:15:02.372Z,100.00
2023-08-11T04:20:13.868Z,100.00
2023-08-11T04:25:17.340Z,100.00
2023-08-11T04:30:21.801Z,100.00
2023-08-11T04:35:25.250Z,100.00
2023-08-11T04:40:28.382Z,100.00
2023-08-11T04:45:32.858Z,100.00
2023-08-11T04:50:36.565Z,100.00
2023-08-11T04:55:41.501Z,100.00
2023-08-11T05:00:46.378Z,100.00
2023-08-11T05:05:49.851Z,100.00
2023-08-11T05:10:53.465Z,100.00
2023-08-11T05:15:57.975Z,100.00
2023-08-11T05:21:01.137Z,100.00
2023-08-11T05:26:04.258Z,100.00
2023-08-11T05:31:10.089Z,100.00
2023-08-11T05:36:13.225Z,100.00
2023-08-11T05:41:16.342Z,100.00
2023-08-11T05:46:20.876Z,100.00
2023-08-11T05:51:24.035Z,100.00
2023-08-11T05:56:27.254Z,100.00
2023-08-11T06:01:32.017Z,100.00
2023-08-11T06:06:36.041Z,100.00
2023-08-11T06:11:39.136Z,100.00
2023-08-11T06:16:43.706Z,100.00
2023-08-11T06:21:47.514Z,100.00
2023-08-11T06:26:53.735Z,100.00
2023-08-11T06:31:58.581Z,100.00
2023-08-11T06:37:01.689Z,100.00
2023-08-11T06:42:05.082Z,100.00
2023-08-11T06:47:09.877Z,100.00
2023-08-11T06:52:13.908Z,100.00
2023-08-11T06:57:22.060Z,92.20
2023-08-11T07:02:26.767Z,92.72
2023-08-11T07:07:30.031Z,90.45
2023-08-11T07:12:33.140Z,84.04
2023-08-11T07:17:37.676Z,80.43
2023-08-11T07:22:41.151Z,71.42
2023-08-11T07:27:44.277Z,68.19
2023-08-11T07:32:48.818Z,71.95
2023-08-11T07:37:52.391Z,67.93
2023-08-11T07:42:55.554Z,64.80
2023-08-11T07:48:00.047Z,58.67
2023-08-11T07:53:03.697Z,63.67
2023-08-11T07:58:06.836Z,58.22
2023-08-11T08:03:11.385Z,63.58
2023-08-11T08:08:14.556Z,58.88
2023-08-11T08:13:18.835Z,55.07
2023-08-11T08:18:23.294Z,56.19
2023-08-11T08:23:26.474Z,50.23
2023-08-11T08:28:31.381Z,55.24
2023-08-11T08:33:37.118Z,49.74
2023-08-11T08:38:40.266Z,50.78
2023-08-11T08:43:43.612Z,47.92
2023-08-11T08:48:54.162Z,51.57
2023-08-11T08:53:57.279Z,49.33
2023-08-11T08:59:00.370Z,47.42
2023-08-11T09:04:07.434Z,49.04
2023-08-11T09:09:13.778Z,48.59
2023-08-11T09:14:17.500Z,47.57
2023-08-11T09:19:22.449Z,45.75
2023-08-11T09:24:25.653Z,48.80
2023-08-11T09:29:29.357Z,47.16
2023-08-11T09:34:35.028Z,43.77
2023-08-11T09:39:38.357Z,46.69
2023-08-11T09:44:41.586Z,44.21
2023-08-11T09:49:46.140Z,40.12
2023-08-11T09:54:51.910Z,47.01
2023-08-11T09:59:56.901Z,42.49
2023-08-11T10:05:05.960Z,42.42
2023-08-11T10:10:14.961Z,44.60
2023-08-11T10:15:21.580Z,43.87
2023-08-11T10:20:26.739Z,40.17
2023-08-11T10:25:31.440Z,44.55
2023-08-11T10:30:34.709Z,41.06
2023-08-11T10:35:52.262Z,40.73
2023-08-11T10:41:01.960Z,38.26
2023-08-11T10:46:23.965Z,41.11
2023-08-11T10:51:33.722Z,37.13
2023-08-11T10:56:39.311Z,38.07
2023-08-11T11:01:43.509Z,38.59
2023-08-11T11:06:49.410Z,40.66
2023-08-11T11:11:53.110Z,36.68
2023-08-11T11:16:59.776Z,34.98
2023-08-11T11:22:04.813Z,40.01
2023-08-11T11:27:08.558Z,39.63
2023-08-11T11:32:12.923Z,40.64
2023-08-11T11:37:17.667Z,37.05
2023-08-11T11:42:20.853Z,35.04
2023-08-11T11:47:24.289Z,37.01
2023-08-11T11:52:29.098Z,37.02
2023-08-11T11:57:32.245Z,38.16
2023-08-11T12:02:35.710Z,35.75
2023-08-11T12:07:40.453Z,38.14
2023-08-11T12:12:43.629Z,36.79
2023-08-11T12:17:50.305Z,39.40
2023-08-11T12:22:54.755Z,38.76
2023-08-11T12:27:58.148Z,37.97
2023-08-11T12:33:01.524Z,36.90
2023-08-11T12:38:06.925Z,35.83
2023-08-11T12:43:13.488Z,36.07
2023-08-11T12:48:17.259Z,37.58
2023-08-11T12:53:21.711Z,35.22
2023-08-11T12:58:24.845Z,36.80
2023-08-11T13:03:29.164Z,37.19
2023-08-11T13:08:33.752Z,41.10
2023-08-11T13:13:36.875Z,37.15
2023-08-11T13:18:40.099Z,38.61
2023-08-11T13:23:44.599Z,36.83
2023-08-11T13:28:47.897Z,37.19
2023-08-11T13:33:51.354Z,37.10
2023-08-11T13:38:55.791Z,35.48
2023-08-11T13:43:59.002Z,36.33
2023-08-11T13:49:02.147Z,38.63
2023-08-11T13:54:07.434Z,39.20
2023-08-11T13:59:10.542Z,37.36
2023-08-11T14:04:14.411Z,38.26
2023-08-11T14:09:18.864Z,37.40
2023-08-11T14:14:21.950Z,38.12
2023-08-11T14:19:25.167Z,35.81
2023-08-11T14:24:29.640Z,37.71
2023-08-11T14:29:32.691Z,35.80
2023-08-11T14:34:35.789Z,39.79
2023-08-11T14:39:40.216Z,39.52
2023-08-11T14:44:43.624Z,41.63
2023-08-11T14:49:46.737Z,38.09
2023-08-11T14:54:51.191Z,38.89
2023-08-11T14:59:54.320Z,41.00
2023-08-11T15:04:57.819Z,41.40
2023-08-11T15:10:02.286Z,41.05
2023-08-11T15:15:06.547Z,38.73
2023-08-11T15:20:11.097Z,39.79
2023-08-11T15:25:15.574Z,41.21
2023-08-11T15:30:20.543Z,41.68
2023-08-11T15:35:24.199Z,40.50
2023-08-11T15:40:28.706Z,41.68
2023-08-11T15:45:31.830Z,41.92
2023-08-11T15:50:34.966Z,42.71
2023-08-11T15:55:39.396Z,43.31
2023-08-11T16:00:43.542Z,42.84
2023-08-11T16:05:46.965Z,42.77
2023-08-11T16:10:51.653Z,45.91
2023-08-11T16:15:54.788Z,44.63
2023-08-11T16:20:58.885Z,49.15
2023-08-11T16:26:04.013Z,48.34
2023-08-11T16:31:07.188Z,45.70
2023-08-11T16:36:10.426Z,48.30
2023-08-11T16:41:15.406Z,45.90
2023-08-11T16:46:19.512Z,45.63
2023-08-11T16:51:22.694Z,43.94
2023-08-11T16:56:27.259Z,46.03
2023-08-11T17:01:30.443Z,46.07
2023-08-11T17:06:33.588Z,48.63
2023-08-11T17:11:38.170Z,51.50
2023-08-11T17:16:41.705Z,57.30
2023-08-11T17:21:45.148Z,50.27
2023-08-11T17:26:49.877Z,58.75
2023-08-11T17:31:53.077Z,65.17
2023-08-11T17:36:56.286Z,70.59
2023-08-11T17:42:05.779Z,77.43
2023-08-11T17:47:10.551Z,78.42
2023-08-11T17:52:13.830Z,79.34
2023-08-11T17:57:18.385Z,81.38
2023-08-11T18:02:21.540Z,86.24
2023-08-11T18:07:25.178Z,87.66
2023-08-11T18:12:29.743Z,93.76
2023-08-11T18:17:32.882Z,94.75
2023-08-11T18:22:36.065Z,93.27
2023-08-11T18:27:41.355Z,95.21
2023-08-11T18:32:46.167Z,96.88
2023-08-11T18:37:49.611Z,97.33
2023-08-11T18:42:54.108Z,98.03
2023-08-11T18:47:57.749Z,98.65
2023-08-11T18:53:01.351Z,100.00
2023-08-11T18:58:05.970Z,100.00
2023-08-11T19:03:09.280Z,100.00
2023-08-11T19:08:13.176Z,100.00
2023-08-11T19:13:17.629Z,100.00
2023-08-11T19:18:20.785Z,100.00
2023-08-11T19:23:24.116Z,100.00
2023-08-11T19:28:32.443Z,100.00
2023-08-11T19:33:36.267Z,100.00
2023-08-11T19:38:43.069Z,100.00
2023-08-11T19:43:47.501Z,100.00
2023-08-11T19:48:50.605Z,100.00
2023-08-11T19:53:53.703Z,100.00
2023-08-11T19:58:58.160Z,100.00
2023-08-11T20:04:01.256Z,100.00
2023-08-11T20:09:08.969Z,100.00
2023-08-11T20:14:13.461Z,100.00
2023-08-11T20:19:16.636Z,100.00
2023-08-11T20:24:19.753Z,100.00
2023-08-11T20:29:24.396Z,100.00
2023-08-11T20:34:27.830Z,100.00
2023-08-11T20:39:31.439Z,100.00
2023-08-11T20:44:36.036Z,100.00
2023-08-11T20:49:39.125Z,100.00
2023-08-11T20:54:44.182Z,100.00
2023-08-11T20:59:48.634Z,100.00
2023-08-11T21:04:51.744Z,100.00
2023-08-11T21:09:54.819Z,100.00
2023-08-11T21:14:59.294Z,100.00
2023-08-11T21:20:02.694Z,100.00
2023-08-11T21:25:06.481Z,100.00
2023-08-11T21:30:12.083Z,100.00
2023-08-11T21:35:15.189Z,100.00
2023-08-11T21:40:18.484Z,100.00
2023-08-11T21:45:22.949Z,100.00
2023-08-11T21:50:27.321Z,100.00
2023-08-11T21:55:30.413Z,100.00
2023-08-11T22:00:36.862Z,100.00
2023-08-11T22:05:40.125Z,100.00
2023-08-11T22:10:45.782Z,100.00
2023-08-11T22:15:50.959Z,100.00
2023-08-11T22:20:54.113Z,100.00
2023-08-11T22:25:57.252Z,100.00
2023-08-11T22:31:01.718Z,100.00
2023-08-11T22:36:05.103Z,100.00
2023-08-11T22:41:08.199Z,100.00
2023-08-11T22:46:12.692Z,100.00
2023-08-11T22:51:15.824Z,100.00
2023-08-11T22:56:18.901Z,100.00
2023-08-11T23:01:23.474Z,100.00
2023-08-11T23:06:26.835Z,100.00
2023-08-11T23:11:30.005Z,100.00
2023-08-11T23:16:34.460Z,100.00
2023-08-11T23:21:37.609Z,100.00
2023-08-11T23:26:40.783Z,100.00
2023-08-11T23:31:45.463Z,100.00
2023-08-11T23:36:48.647Z,100.00
2023-08-11T23:41:52.042Z,100.00
2023-08-11T23:46:56.466Z,100.00
2023-08-11T23:51:59.568Z,100.00
2023-08-11T23:57:02.924Z,100.00
